createdAt,value
2023-05-05T00:00:55.352Z,92.21
2023-05-05T00:01:55.395Z,92.32
2023-05-05T00:02:55.639Z,92.63
2023-05-05T00:03:55.428Z,92.73
2023-05-05T00:04:55.416Z,92.73
2023-05-05T00:05:55.413Z,92.73
2023-05-05T00:06:55.433Z,92.63
2023-05-05T00:07:55.446Z,92.42
2023-05-05T00:08:55.462Z,92.21
2023-05-05T00:09:55.477Z,92.21
2023-05-05T00:10:55.497Z,92.11
2023-05-05T00:11:55.510Z,92.11
2023-05-05T00:12:55.552Z,92.01
2023-05-05T00:13:55.557Z,92.21
2023-05-05T00:14:55.563Z,92.42
2023-05-05T00:15:55.579Z,92.32
2023-05-05T00:16:55.637Z,92.21
2023-05-05T00:17:55.620Z,92.21
2023-05-05T00:18:55.642Z,92.16
2023-05-05T00:19:55.636Z,92.57
2023-05-05T00:20:55.653Z,92.77
2023-05-05T00:21:55.665Z,93.08
2023-05-05T00:22:55.700Z,93.18
2023-05-05T00:23:55.704Z,93.18
2023-05-05T00:24:55.710Z,93.29
2023-05-05T00:25:55.717Z,93.49
2023-05-05T00:26:55.737Z,93.39
2023-05-05T00:27:55.767Z,93.49
2023-05-05T00:28:55.792Z,93.90
2023-05-05T00:29:55.778Z,93.90
2023-05-05T00:30:55.855Z,93.96
2023-05-05T00:31:55.806Z,93.44
2023-05-05T00:32:55.874Z,93.04
2023-05-05T00:33:55.840Z,93.29
2023-05-05T00:34:55.861Z,93.18
2023-05-05T00:35:55.902Z,93.18
2023-05-05T00:36:55.894Z,93.08
2023-05-05T00:37:55.928Z,93.08
2023-05-05T00:38:55.929Z,93.08
2023-05-05T00:39:55.944Z,92.77
2023-05-05T00:40:55.965Z,92.50
2023-05-05T00:41:55.986Z,92.82
2023-05-05T00:42:56.033Z,92.92
2023-05-05T00:43:56.015Z,92.92
2023-05-05T00:44:56.180Z,93.02
2023-05-05T00:45:56.055Z,93.12
2023-05-05T00:46:56.096Z,93.23
2023-05-05T00:47:56.144Z,93.23
2023-05-05T00:48:56.129Z,93.54
2023-05-05T00:49:56.117Z,93.54
2023-05-05T00:50:56.139Z,93.64
2023-05-05T00:51:56.164Z,93.74
2023-05-05T00:52:56.180Z,93.95
2023-05-05T00:53:56.183Z,93.74
2023-05-05T00:54:56.211Z,93.64
2023-05-05T00:55:56.237Z,93.54
2023-05-05T00:56:56.263Z,93.64
2023-05-05T00:57:56.248Z,93.43
2023-05-05T00:58:56.267Z,93.74
2023-05-05T00:59:56.303Z,93.64
2023-05-05T01:00:56.323Z,93.64
2023-05-05T01:01:56.421Z,93.43
2023-05-05T01:02:56.396Z,93.74
2023-05-05T01:03:56.379Z,93.84
2023-05-05T01:04:56.374Z,94.09
2023-05-05T01:05:56.407Z,94.20
2023-05-05T01:06:56.408Z,94.20
2023-05-05T01:07:56.429Z,94.20
2023-05-05T01:08:56.448Z,93.88
2023-05-05T01:10:10.967Z,93.99
2023-05-05T01:10:56.491Z,93.99
2023-05-05T01:11:56.474Z,94.20
2023-05-05T01:12:56.557Z,94.09
2023-05-05T01:13:56.525Z,94.09
2023-05-05T01:14:56.563Z,94.09
2023-05-05T01:15:56.572Z,93.68
2023-05-05T01:16:56.567Z,93.79
2023-05-05T01:17:56.620Z,93.79
2023-05-05T01:18:56.611Z,94.09
2023-05-05T01:19:56.640Z,94.30
2023-05-05T01:20:56.630Z,94.51
2023-05-05T01:21:56.648Z,94.40
2023-05-05T01:22:56.674Z,94.30
2023-05-05T01:23:56.703Z,94.30
2023-05-05T01:24:56.727Z,94.51
2023-05-05T01:25:56.731Z,94.30
2023-05-05T01:26:56.749Z,94.20
2023-05-05T01:27:56.761Z,94.45
2023-05-05T01:28:56.801Z,94.24
2023-05-05T01:29:56.793Z,94.34
2023-05-05T01:30:56.804Z,94.55
2023-05-05T01:31:57.024Z,94.45
2023-05-05T01:32:56.909Z,94.34
2023-05-05T01:33:56.874Z,94.55
2023-05-05T01:34:56.850Z,94.76
2023-05-05T01:35:56.872Z,94.96
2023-05-05T01:36:56.897Z,94.96
2023-05-05T01:37:56.929Z,94.85
2023-05-05T01:38:56.941Z,94.65
2023-05-05T01:39:56.933Z,94.65
2023-05-05T01:40:56.953Z,94.76
2023-05-05T01:41:56.991Z,94.76
2023-05-05T01:42:57.006Z,94.96
2023-05-05T01:43:57.012Z,95.06
2023-05-05T01:44:57.027Z,95.06
2023-05-05T01:45:57.109Z,95.06
2023-05-05T01:46:57.061Z,95.06
2023-05-05T01:47:57.138Z,95.17
2023-05-05T01:48:57.097Z,94.85
2023-05-05T01:49:57.115Z,94.85
2023-05-05T01:50:57.124Z,94.96
2023-05-05T01:51:57.151Z,95.06
2023-05-05T01:52:57.165Z,94.96
2023-05-05T01:53:57.183Z,94.71
2023-05-05T01:54:57.192Z,94.71
2023-05-05T01:55:57.217Z,94.92
2023-05-05T01:56:57.235Z,95.02
2023-05-05T01:57:57.252Z,94.71
2023-05-05T01:58:57.270Z,94.55
2023-05-05T01:59:57.292Z,94.81
2023-05-05T02:00:57.366Z,94.96
2023-05-05T02:01:57.331Z,95.06
2023-05-05T02:02:57.491Z,95.17
2023-05-05T02:03:57.428Z,95.17
2023-05-05T02:04:57.371Z,94.96
2023-05-05T02:05:57.405Z,94.76
2023-05-05T02:06:57.407Z,94.76
2023-05-05T02:07:57.430Z,95.06
2023-05-05T02:08:57.444Z,95.17
2023-05-05T02:09:57.468Z,95.17
2023-05-05T02:10:57.512Z,95.48
2023-05-05T02:11:57.503Z,95.48
2023-05-05T02:12:57.560Z,95.37
2023-05-05T02:13:57.570Z,95.37
2023-05-05T02:14:57.568Z,95.27
2023-05-05T02:15:57.644Z,95.48
2023-05-05T02:16:57.593Z,95.68
2023-05-05T02:17:57.624Z,95.83
2023-05-05T02:18:57.604Z,95.93
2023-05-05T02:19:57.652Z,95.93
2023-05-05T02:20:57.637Z,95.93
2023-05-05T02:21:57.660Z,95.83
2023-05-05T02:22:57.685Z,95.83
2023-05-05T02:23:57.693Z,95.83
2023-05-05T02:24:57.722Z,95.93
2023-05-05T02:25:57.725Z,96.03
2023-05-05T02:26:57.762Z,96.34
2023-05-05T02:27:57.792Z,96.45
2023-05-05T02:28:57.792Z,96.55
2023-05-05T02:29:57.803Z,96.55
2023-05-05T02:30:57.846Z,96.55
2023-05-05T02:31:57.831Z,96.34
2023-05-05T02:32:57.877Z,96.34
2023-05-05T02:33:57.906Z,96.34
2023-05-05T02:34:57.885Z,96.61
2023-05-05T02:35:57.910Z,96.71
2023-05-05T02:36:57.910Z,96.81
2023-05-05T02:37:57.929Z,96.50
2023-05-05T02:38:57.972Z,96.20
2023-05-05T02:39:57.961Z,96.30
2023-05-05T02:40:57.974Z,96.09
2023-05-05T02:41:58.020Z,95.58
2023-05-05T02:42:58.068Z,95.68
2023-05-05T02:43:58.055Z,95.58
2023-05-05T02:44:58.041Z,95.68
2023-05-05T02:45:58.071Z,95.78
2023-05-05T02:46:58.094Z,95.93
2023-05-05T02:47:58.143Z,96.24
2023-05-05T02:49:04.133Z,96.45
2023-05-05T02:49:58.140Z,96.45
2023-05-05T02:50:58.156Z,96.55
2023-05-05T02:51:58.185Z,96.86
2023-05-05T02:52:58.209Z,96.92
2023-05-05T02:53:58.224Z,96.92
2023-05-05T02:54:58.233Z,96.92
2023-05-05T02:55:58.253Z,96.81
2023-05-05T02:56:58.307Z,96.61
2023-05-05T02:57:58.304Z,96.50
2023-05-05T02:58:58.299Z,96.50
2023-05-05T02:59:58.316Z,96.50
2023-05-05T03:00:58.330Z,96.41
2023-05-05T03:01:58.389Z,96.34
2023-05-05T03:02:58.410Z,96.41
2023-05-05T03:03:58.531Z,96.34
2023-05-05T03:04:58.392Z,96.45
2023-05-05T03:05:58.430Z,96.66
2023-05-05T03:06:58.440Z,96.81
2023-05-05T03:07:58.448Z,96.81
2023-05-05T03:08:58.453Z,96.61
2023-05-05T03:09:58.468Z,96.50
2023-05-05T03:10:58.519Z,96.50
2023-05-05T03:11:58.543Z,96.50
2023-05-05T03:12:58.559Z,96.41
2023-05-05T03:13:58.540Z,96.41
2023-05-05T03:14:58.581Z,96.20
2023-05-05T03:15:58.658Z,96.20
2023-05-05T03:16:58.590Z,96.30
2023-05-05T03:17:58.638Z,96.50
2023-05-05T03:18:58.654Z,96.41
2023-05-05T03:19:58.650Z,96.30
2023-05-05T03:20:58.686Z,96.30
2023-05-05T03:21:58.677Z,96.34
2023-05-05T03:22:58.690Z,96.34
2023-05-05T03:23:58.710Z,96.66
2023-05-05T03:24:58.735Z,97.23
2023-05-05T03:25:58.744Z,97.43
2023-05-05T03:26:58.763Z,97.13
2023-05-05T03:27:58.775Z,96.81
2023-05-05T03:28:58.795Z,96.30
2023-05-05T03:29:58.812Z,96.03
2023-05-05T03:30:58.833Z,96.03
2023-05-05T03:31:58.924Z,96.14
2023-05-05T03:32:58.904Z,96.34
2023-05-05T03:33:58.903Z,96.55
2023-05-05T03:34:58.904Z,96.55
2023-05-05T03:35:58.904Z,96.75
2023-05-05T03:36:58.930Z,96.96
2023-05-05T03:37:58.945Z,96.96
2023-05-05T03:38:58.990Z,96.96
2023-05-05T03:39:58.994Z,97.06
2023-05-05T03:40:59.002Z,97.06
2023-05-05T03:41:59.021Z,97.06
2023-05-05T03:42:59.045Z,97.17
2023-05-05T03:43:59.071Z,97.27
2023-05-05T03:44:59.068Z,97.38
2023-05-05T03:45:59.126Z,97.48
2023-05-05T03:46:59.105Z,97.52
2023-05-05T03:47:59.195Z,97.42
2023-05-05T03:48:59.164Z,97.52
2023-05-05T03:49:59.168Z,97.42
2023-05-05T03:50:59.180Z,97.63
2023-05-05T03:51:59.194Z,97.63
2023-05-05T03:52:59.236Z,97.58
2023-05-05T03:53:59.232Z,97.58
2023-05-05T03:54:59.252Z,97.58
2023-05-05T03:55:59.270Z,97.52
2023-05-05T03:56:59.297Z,97.63
2023-05-05T03:57:59.327Z,97.83
2023-05-05T03:58:59.327Z,97.73
2023-05-05T03:59:59.337Z,97.83
2023-05-05T04:00:59.357Z,97.83
2023-05-05T04:01:59.415Z,97.83
2023-05-05T04:02:59.543Z,97.94
2023-05-05T04:03:59.454Z,97.94
2023-05-05T04:04:59.428Z,97.73
2023-05-05T04:05:59.442Z,97.63
2023-05-05T04:06:59.474Z,97.52
2023-05-05T04:07:59.495Z,97.63
2023-05-05T04:08:59.495Z,97.63
2023-05-05T04:09:59.511Z,97.68
2023-05-05T04:10:59.528Z,97.58
2023-05-05T04:11:59.547Z,97.58
2023-05-05T04:12:59.577Z,97.58
2023-05-05T04:13:59.569Z,97.68
2023-05-05T04:14:59.615Z,97.58
2023-05-05T04:15:59.722Z,97.58
2023-05-05T04:16:59.630Z,97.68
2023-05-05T04:17:59.695Z,97.68
2023-05-05T04:18:59.673Z,97.78
2023-05-05T04:19:59.683Z,97.78
2023-05-05T04:20:59.724Z,97.89
2023-05-05T04:21:59.718Z,97.89
2023-05-05T04:22:59.734Z,97.78
2023-05-05T04:23:59.766Z,97.89
2023-05-05T04:24:59.775Z,97.89
2023-05-05T04:25:59.805Z,97.89
2023-05-05T04:26:59.808Z,97.89
2023-05-05T04:27:59.827Z,97.78
2023-05-05T04:28:59.848Z,97.78
2023-05-05T04:29:59.890Z,97.68
2023-05-05T04:30:59.918Z,97.68
2023-05-05T04:31:59.899Z,97.64
2023-05-05T04:32:59.962Z,97.64
2023-05-05T04:33:59.931Z,97.64
2023-05-05T04:34:59.990Z,97.64
2023-05-05T04:35:59.956Z,97.74
2023-05-05T04:36:59.983Z,97.74
2023-05-05T04:37:59.985Z,97.74
2023-05-05T04:39:00.070Z,97.74
2023-05-05T04:40:00.037Z,97.74
2023-05-05T04:41:00.097Z,97.85
2023-05-05T04:42:00.077Z,97.85
2023-05-05T04:43:00.100Z,97.85
2023-05-05T04:44:00.154Z,97.85
2023-05-05T04:45:00.160Z,97.95
2023-05-05T04:46:00.163Z,97.95
2023-05-05T04:47:00.156Z,97.95
2023-05-05T04:48:00.207Z,97.95
2023-05-05T04:49:00.186Z,98.05
2023-05-05T04:50:00.228Z,98.11
2023-05-05T04:51:00.220Z,98.00
2023-05-05T04:52:00.248Z,98.00
2023-05-05T04:53:00.256Z,98.00
2023-05-05T04:54:00.277Z,98.00
2023-05-05T04:55:00.293Z,98.21
2023-05-05T04:56:00.303Z,98.11
2023-05-05T04:57:00.338Z,98.00
2023-05-05T04:58:00.366Z,97.90
2023-05-05T04:59:00.365Z,97.80
2023-05-05T05:00:00.397Z,97.55
2023-05-05T05:01:00.385Z,97.44
2023-05-05T05:02:00.452Z,97.55
2023-05-05T05:03:00.523Z,97.75
2023-05-05T05:04:00.550Z,97.86
2023-05-05T05:05:00.495Z,97.44
2023-05-05T05:06:00.481Z,97.24
2023-05-05T05:07:00.500Z,97.14
2023-05-05T05:08:00.535Z,97.14
2023-05-05T05:09:00.565Z,97.14
2023-05-05T05:10:00.543Z,97.30
2023-05-05T05:11:00.594Z,97.30
2023-05-05T05:12:00.616Z,96.73
2023-05-05T05:13:00.680Z,96.39
2023-05-05T05:14:00.598Z,96.28
2023-05-05T05:15:00.618Z,95.93
2023-05-05T05:16:00.655Z,95.62
2023-05-05T05:17:00.675Z,95.10
2023-05-05T05:18:00.747Z,94.96
2023-05-05T05:19:01.851Z,94.85
2023-05-05T05:20:00.714Z,94.71
2023-05-05T05:21:00.746Z,94.51
2023-05-05T05:22:00.757Z,94.30
2023-05-05T05:23:00.766Z,94.46
2023-05-05T05:24:00.771Z,94.26
2023-05-05T05:25:00.786Z,94.15
2023-05-05T05:26:00.817Z,93.95
2023-05-05T05:27:00.819Z,93.60
2023-05-05T05:28:09.627Z,93.39
2023-05-05T05:29:00.850Z,92.98
2023-05-05T05:30:00.860Z,92.43
2023-05-05T05:31:00.878Z,92.94
2023-05-05T05:32:00.914Z,92.53
2023-05-05T05:33:00.946Z,90.75
2023-05-05T05:34:00.921Z,91.05
2023-05-05T05:35:00.999Z,92.59
2023-05-05T05:36:00.982Z,92.55
2023-05-05T05:37:00.956Z,93.37
2023-05-05T05:38:00.974Z,92.19
2023-05-05T05:39:00.978Z,92.50
2023-05-05T05:40:01.012Z,93.01
2023-05-05T05:41:01.033Z,92.56
2023-05-05T05:42:01.050Z,93.79
2023-05-05T05:43:01.050Z,93.65
2023-05-05T05:44:01.051Z,94.46
2023-05-05T05:45:01.092Z,94.32
2023-05-05T05:46:01.124Z,92.74
2023-05-05T05:47:01.120Z,92.23
2023-05-05T05:48:01.156Z,91.20
2023-05-05T05:49:01.185Z,92.39
2023-05-05T05:50:01.160Z,91.74
2023-05-05T05:51:01.168Z,90.67
2023-05-05T05:52:01.182Z,89.25
2023-05-05T05:53:01.224Z,91.79
2023-05-05T05:54:01.225Z,91.44
2023-05-05T05:55:01.229Z,90.22
2023-05-05T05:56:01.230Z,88.65
2023-05-05T05:57:01.253Z,89.36
2023-05-05T05:58:01.271Z,88.96
2023-05-05T05:59:01.304Z,87.38
2023-05-05T06:00:02.270Z,87.69
2023-05-05T06:01:01.314Z,87.79
2023-05-05T06:02:01.461Z,86.88
2023-05-05T06:03:01.460Z,87.90
2023-05-05T06:04:01.489Z,87.14
2023-05-05T06:05:01.364Z,87.35
2023-05-05T06:06:01.390Z,87.35
2023-05-05T06:07:01.400Z,86.49
2023-05-05T06:08:01.432Z,86.39
2023-05-05T06:09:01.425Z,86.25
2023-05-05T06:10:10.859Z,85.84
2023-05-05T06:11:01.456Z,86.15
2023-05-05T06:12:01.471Z,85.94
2023-05-05T06:13:01.519Z,85.90
2023-05-05T06:14:01.499Z,85.80
2023-05-05T06:15:01.508Z,85.09
2023-05-05T06:16:01.516Z,85.39
2023-05-05T06:17:01.560Z,84.13
2023-05-05T06:18:01.589Z,84.34
2023-05-05T06:19:01.574Z,84.23
2023-05-05T06:20:01.590Z,83.53
2023-05-05T06:21:01.601Z,82.57
2023-05-05T06:22:01.659Z,83.48
2023-05-05T06:23:01.635Z,82.73
2023-05-05T06:24:01.649Z,82.43
2023-05-05T06:25:01.667Z,82.23
2023-05-05T06:26:01.708Z,81.31
2023-05-05T06:27:01.711Z,81.92
2023-05-05T06:28:01.713Z,82.33
2023-05-05T06:29:01.720Z,82.43
2023-05-05T06:30:01.755Z,81.31
2023-05-05T06:31:01.785Z,82.53
2023-05-05T06:32:01.759Z,82.73
2023-05-05T06:33:01.829Z,82.43
2023-05-05T06:34:01.797Z,82.84
2023-05-05T06:35:01.816Z,82.84
2023-05-05T06:36:01.842Z,81.72
2023-05-05T06:37:01.838Z,82.23
2023-05-05T06:38:01.862Z,81.58
2023-05-05T06:39:01.884Z,81.48
2023-05-05T06:40:01.907Z,80.97
2023-05-05T06:41:01.901Z,81.78
2023-05-05T06:42:01.913Z,81.18
2023-05-05T06:43:01.935Z,81.04
2023-05-05T06:44:01.950Z,81.13
2023-05-05T06:45:01.985Z,80.22
2023-05-05T06:46:01.976Z,80.53
2023-05-05T06:47:02.071Z,80.83
2023-05-05T06:48:02.066Z,80.32
2023-05-05T06:49:02.134Z,79.61
2023-05-05T06:50:02.053Z,80.49
2023-05-05T06:51:02.929Z,79.88
2023-05-05T06:52:02.063Z,80.29
2023-05-05T06:53:02.083Z,80.25
2023-05-05T06:54:02.120Z,79.34
2023-05-05T06:55:02.131Z,80.76
2023-05-05T06:56:02.127Z,80.35
2023-05-05T06:57:02.137Z,79.71
2023-05-05T06:58:02.161Z,78.79
2023-05-05T06:59:02.189Z,78.79
2023-05-05T07:00:02.217Z,79.20
2023-05-05T07:01:02.237Z,79.36
2023-05-05T07:02:02.243Z,78.96
2023-05-05T07:03:02.329Z,78.86
2023-05-05T07:04:02.288Z,77.34
2023-05-05T07:05:02.281Z,77.95
2023-05-05T07:06:02.282Z,77.64
2023-05-05T07:07:02.309Z,77.95
2023-05-05T07:08:02.339Z,77.81
2023-05-05T07:09:02.342Z,77.50
2023-05-05T07:10:02.359Z,78.01
2023-05-05T07:11:02.375Z,77.30
2023-05-05T07:12:02.394Z,77.20
2023-05-05T07:13:02.443Z,77.50
2023-05-05T07:14:02.412Z,76.70
2023-05-05T07:15:12.283Z,76.46
2023-05-05T07:16:02.456Z,76.76
2023-05-05T07:17:02.543Z,76.97
2023-05-05T07:18:02.520Z,76.15
2023-05-05T07:19:02.500Z,76.56
2023-05-05T07:20:02.502Z,76.62
2023-05-05T07:21:02.525Z,76.93
2023-05-05T07:22:02.565Z,76.72
2023-05-05T07:23:02.569Z,76.82
2023-05-05T07:24:02.564Z,76.93
2023-05-05T07:25:02.581Z,75.61
2023-05-05T07:26:02.598Z,75.31
2023-05-05T07:27:02.632Z,75.51
2023-05-05T07:28:02.628Z,76.72
2023-05-05T07:29:02.644Z,77.19
2023-05-05T07:30:05.059Z,76.48
2023-05-05T07:31:02.691Z,75.68
2023-05-05T07:32:02.760Z,75.57
2023-05-05T07:33:02.759Z,75.74
2023-05-05T07:34:02.711Z,75.34
2023-05-05T07:35:02.758Z,75.44
2023-05-05T07:36:02.814Z,75.40
2023-05-05T07:37:02.746Z,74.80
2023-05-05T07:38:02.761Z,74.90
2023-05-05T07:39:02.768Z,74.69
2023-05-05T07:40:02.787Z,75.10
2023-05-05T07:41:02.815Z,73.58
2023-05-05T07:42:02.815Z,74.96
2023-05-05T07:43:02.829Z,74.16
2023-05-05T07:44:02.833Z,74.26
2023-05-05T07:45:02.952Z,73.55
2023-05-05T07:46:02.896Z,73.65
2023-05-05T07:47:02.873Z,73.11
2023-05-05T07:48:02.956Z,73.32
2023-05-05T07:49:02.904Z,72.67
2023-05-05T07:50:03.058Z,72.98
2023-05-05T07:51:03.050Z,73.28
2023-05-05T07:52:02.959Z,72.44
2023-05-05T07:53:13.731Z,72.64
2023-05-05T07:54:03.020Z,73.75
2023-05-05T07:55:03.005Z,72.85
2023-05-05T07:56:03.022Z,73.45
2023-05-05T07:57:03.027Z,72.24
2023-05-05T07:58:03.047Z,72.74
2023-05-05T07:59:03.077Z,73.25
2023-05-05T08:00:03.094Z,73.45
2023-05-05T08:01:03.103Z,73.65
2023-05-05T08:02:03.147Z,72.44
2023-05-05T08:03:03.224Z,72.34
2023-05-05T08:04:03.233Z,73.55
2023-05-05T08:05:03.168Z,73.25
2023-05-05T08:06:03.180Z,73.45
2023-05-05T08:07:03.195Z,72.51
2023-05-05T08:08:03.234Z,72.91
2023-05-05T08:09:03.243Z,73.41
2023-05-05T08:10:03.251Z,72.61
2023-05-05T08:11:03.285Z,72.71
2023-05-05T08:12:03.268Z,73.18
2023-05-05T08:13:03.362Z,73.38
2023-05-05T08:14:03.297Z,71.94
2023-05-05T08:15:03.317Z,70.43
2023-05-05T08:16:03.385Z,71.40
2023-05-05T08:17:03.371Z,70.89
2023-05-05T08:18:03.453Z,72.00
2023-05-05T08:19:05.033Z,72.00
2023-05-05T08:20:03.389Z,71.40
2023-05-05T08:21:03.403Z,70.70
2023-05-05T08:22:03.465Z,71.20
2023-05-05T08:23:03.463Z,70.56
2023-05-05T08:24:03.454Z,70.36
2023-05-05T08:25:03.477Z,70.12
2023-05-05T08:26:03.478Z,69.49
2023-05-05T08:27:03.515Z,69.96
2023-05-05T08:28:03.512Z,68.65
2023-05-05T08:29:03.530Z,68.76
2023-05-05T08:30:03.542Z,68.55
2023-05-05T08:31:03.593Z,70.46
2023-05-05T08:32:03.597Z,69.46
2023-05-05T08:33:03.616Z,71.26
2023-05-05T08:34:03.598Z,69.56
2023-05-05T08:35:03.609Z,70.36
2023-05-05T08:36:03.648Z,69.66
2023-05-05T08:37:03.638Z,68.55
2023-05-05T08:38:03.673Z,68.95
2023-05-05T08:39:03.661Z,69.15
2023-05-05T08:40:03.696Z,69.66
2023-05-05T08:41:03.733Z,69.06
2023-05-05T08:42:03.724Z,68.15
2023-05-05T08:43:03.723Z,68.45
2023-05-05T08:44:03.739Z,68.15
2023-05-05T08:45:03.765Z,68.52
2023-05-05T08:46:03.796Z,68.32
2023-05-05T08:47:03.897Z,66.91
2023-05-05T08:48:03.872Z,67.58
2023-05-05T08:49:03.837Z,67.29
2023-05-05T08:50:03.849Z,65.78
2023-05-05T08:51:09.870Z,65.45
2023-05-05T08:52:03.882Z,63.14
2023-05-05T08:53:03.898Z,63.75
2023-05-05T08:54:03.969Z,65.35
2023-05-05T08:55:03.933Z,63.84
2023-05-05T08:56:03.985Z,63.31
2023-05-05T08:57:03.942Z,61.91
2023-05-05T08:58:03.956Z,64.51
2023-05-05T08:59:03.977Z,64.84
2023-05-05T09:00:04.026Z,64.54
2023-05-05T09:01:04.069Z,65.25
2023-05-05T09:02:04.053Z,65.35
2023-05-05T09:03:04.355Z,64.45
2023-05-05T09:04:04.062Z,64.95
2023-05-05T09:05:04.076Z,63.11
2023-05-05T09:06:04.105Z,62.71
2023-05-05T09:07:04.098Z,65.48
2023-05-05T09:08:04.112Z,64.09
2023-05-05T09:09:04.134Z,62.28
2023-05-05T09:10:04.148Z,63.85
2023-05-05T09:11:04.155Z,63.85
2023-05-05T09:12:04.175Z,63.95
2023-05-05T09:13:04.231Z,65.16
2023-05-05T09:14:04.215Z,62.95
2023-05-05T09:15:04.234Z,61.25
2023-05-05T09:16:04.270Z,62.38
2023-05-05T09:17:04.393Z,62.85
2023-05-05T09:18:04.326Z,63.65
2023-05-05T09:19:04.318Z,64.65
2023-05-05T09:20:04.333Z,63.45
2023-05-05T09:21:04.302Z,61.65
2023-05-05T09:22:04.325Z,62.92
2023-05-05T09:23:04.352Z,62.02
2023-05-05T09:24:08.117Z,61.32
2023-05-05T09:25:04.361Z,59.42
2023-05-05T09:26:04.438Z,61.25
2023-05-05T09:27:04.410Z,62.42
2023-05-05T09:28:04.441Z,60.15
2023-05-05T09:29:04.438Z,61.35
2023-05-05T09:30:04.459Z,62.05
2023-05-05T09:31:04.500Z,63.15
2023-05-05T09:32:04.504Z,62.15
2023-05-05T09:33:04.534Z,60.58
2023-05-05T09:34:04.508Z,62.88
2023-05-05T09:35:04.517Z,63.68
2023-05-05T09:36:04.562Z,62.58
2023-05-05T09:37:04.571Z,63.11
2023-05-05T09:38:04.552Z,63.71
2023-05-05T09:39:04.574Z,62.21
2023-05-05T09:40:04.626Z,63.11
2023-05-05T09:41:04.600Z,62.31
2023-05-05T09:42:04.608Z,63.51
2023-05-05T09:43:04.625Z,62.11
2023-05-05T09:44:04.638Z,61.01
2023-05-05T09:45:04.676Z,62.51
2023-05-05T09:46:04.720Z,62.71
2023-05-05T09:47:09.540Z,63.11
2023-05-05T09:48:04.761Z,63.45
2023-05-05T09:49:04.703Z,62.94
2023-05-05T09:50:04.728Z,62.94
2023-05-05T09:51:04.748Z,62.34
2023-05-05T09:52:04.759Z,63.42
2023-05-05T09:53:04.769Z,63.84
2023-05-05T09:54:04.778Z,62.84
2023-05-05T09:55:04.789Z,62.47
2023-05-05T09:56:04.832Z,63.78
2023-05-05T09:57:05.033Z,62.87
2023-05-05T09:58:04.844Z,63.00
2023-05-05T09:59:04.849Z,63.47
2023-05-05T10:00:04.888Z,63.87
2023-05-05T10:01:05.119Z,63.37
2023-05-05T10:02:04.895Z,62.07
2023-05-05T10:03:04.917Z,63.07
2023-05-05T10:04:04.923Z,63.34
2023-05-05T10:05:04.983Z,61.74
2023-05-05T10:06:04.944Z,60.21
2023-05-05T10:07:04.959Z,59.70
2023-05-05T10:08:04.976Z,60.11
2023-05-05T10:09:04.986Z,62.31
2023-05-05T10:10:05.097Z,62.28
2023-05-05T10:11:05.035Z,63.28
2023-05-05T10:12:05.045Z,62.48
2023-05-05T10:13:05.105Z,61.98
2023-05-05T10:14:05.075Z,62.05
2023-05-05T10:15:05.093Z,61.65
2023-05-05T10:16:05.136Z,61.65
2023-05-05T10:17:05.096Z,61.82
2023-05-05T10:18:07.830Z,62.42
2023-05-05T10:19:05.147Z,60.35
2023-05-05T10:20:05.153Z,62.32
2023-05-05T10:21:05.153Z,61.72
2023-05-05T10:22:05.176Z,59.85
2023-05-05T10:23:05.183Z,61.35
2023-05-05T10:24:05.224Z,62.12
2023-05-05T10:25:05.215Z,61.62
2023-05-05T10:26:05.232Z,60.95
2023-05-05T10:27:05.242Z,58.95
2023-05-05T10:28:05.287Z,59.95
2023-05-05T10:29:05.301Z,60.55
2023-05-05T10:30:05.321Z,60.75
2023-05-05T10:31:13.190Z,61.05
2023-05-05T10:32:18.916Z,61.65
2023-05-05T10:33:27.189Z,63.15
2023-05-05T10:34:05.541Z,60.92
2023-05-05T10:35:05.397Z,59.92
2023-05-05T10:36:05.404Z,59.82
2023-05-05T10:37:05.845Z,59.62
2023-05-05T10:38:05.436Z,58.62
2023-05-05T10:39:05.452Z,60.22
2023-05-05T10:40:05.573Z,60.42
2023-05-05T10:41:05.481Z,59.82
2023-05-05T10:42:05.538Z,57.22
2023-05-05T10:43:05.503Z,57.45
2023-05-05T10:44:05.540Z,58.25
2023-05-05T10:45:05.654Z,59.45
2023-05-05T10:46:05.608Z,59.55
2023-05-05T10:47:05.582Z,59.25
2023-05-05T10:48:05.703Z,60.15
2023-05-05T10:49:05.597Z,59.55
2023-05-05T10:50:05.717Z,58.25
2023-05-05T10:51:05.628Z,57.95
2023-05-05T10:52:05.674Z,59.52
2023-05-05T10:53:05.674Z,59.72
2023-05-05T10:54:05.708Z,59.30
2023-05-05T10:55:05.693Z,58.89
2023-05-05T10:56:05.726Z,57.09
2023-05-05T10:57:05.732Z,58.49
2023-05-05T10:58:05.737Z,58.00
2023-05-05T10:59:05.760Z,56.57
2023-05-05T11:00:05.891Z,55.07
2023-05-05T11:01:05.815Z,57.67
2023-05-05T11:02:05.796Z,56.16
2023-05-05T11:03:05.910Z,58.76
2023-05-05T11:04:05.834Z,57.14
2023-05-05T11:05:05.850Z,55.94
2023-05-05T11:06:05.892Z,57.44
2023-05-05T11:07:05.872Z,57.54
2023-05-05T11:08:05.893Z,56.57
2023-05-05T11:09:05.903Z,57.29
2023-05-05T11:10:06.236Z,58.42
2023-05-05T11:11:05.938Z,57.62
2023-05-05T11:12:05.938Z,57.42
2023-05-05T11:13:05.975Z,58.62
2023-05-05T11:14:05.956Z,58.92
2023-05-05T11:15:05.985Z,60.69
2023-05-05T11:16:06.040Z,59.79
2023-05-05T11:17:06.003Z,57.17
2023-05-05T11:18:07.951Z,57.57
2023-05-05T11:19:06.042Z,59.27
2023-05-05T11:20:06.297Z,57.46
2023-05-05T11:21:06.063Z,57.14
2023-05-05T11:22:06.148Z,59.14
2023-05-05T11:23:06.101Z,57.04
2023-05-05T11:24:06.127Z,56.96
2023-05-05T11:25:06.156Z,57.76
2023-05-05T11:26:06.154Z,57.26
2023-05-05T11:27:06.149Z,55.79
2023-05-05T11:28:06.170Z,57.57
2023-05-05T11:29:06.201Z,56.57
2023-05-05T11:30:06.291Z,57.54
2023-05-05T11:31:06.235Z,57.74
2023-05-05T11:32:06.237Z,55.84
2023-05-05T11:33:06.291Z,56.74
2023-05-05T11:34:06.287Z,57.91
2023-05-05T11:35:06.343Z,57.11
2023-05-05T11:36:06.935Z,57.21
2023-05-05T11:37:06.299Z,55.81
2023-05-05T11:38:06.357Z,55.51
2023-05-05T11:39:06.331Z,56.41
2023-05-05T11:40:06.620Z,55.91
2023-05-05T11:41:06.352Z,55.51
2023-05-05T11:42:10.493Z,56.31
2023-05-05T11:43:06.399Z,54.91
2023-05-05T11:44:06.390Z,55.62
2023-05-05T11:45:06.415Z,56.68
2023-05-05T11:46:06.483Z,56.68
2023-05-05T11:47:06.460Z,56.01
2023-05-05T11:48:07.049Z,56.64
2023-05-05T11:49:06.486Z,56.94
2023-05-05T11:50:06.694Z,56.74
2023-05-05T11:51:06.499Z,56.81
2023-05-05T11:52:06.540Z,57.21
2023-05-05T11:53:06.526Z,57.11
2023-05-05T11:54:06.564Z,55.74
2023-05-05T11:55:06.562Z,55.57
2023-05-05T11:56:06.577Z,56.84
2023-05-05T11:57:06.610Z,58.21
2023-05-05T11:58:06.590Z,57.48
2023-05-05T11:59:06.644Z,53.59
2023-05-05T12:00:06.745Z,55.06
2023-05-05T12:01:06.653Z,56.46
2023-05-05T12:02:06.668Z,57.28
2023-05-05T12:03:06.863Z,55.29
2023-05-05T12:04:06.789Z,53.99
2023-05-05T12:05:06.705Z,54.82
2023-05-05T12:06:06.731Z,57.21
2023-05-05T12:07:06.748Z,56.21
2023-05-05T12:08:06.753Z,56.91
2023-05-05T12:09:06.778Z,58.28
2023-05-05T12:10:06.973Z,55.99
2023-05-05T12:11:06.837Z,56.16
2023-05-05T12:12:06.798Z,54.79
2023-05-05T12:13:06.889Z,55.19
2023-05-05T12:14:06.865Z,57.18
2023-05-05T12:15:06.889Z,53.99
2023-05-05T12:16:06.888Z,54.89
2023-05-05T12:17:06.872Z,55.58
2023-05-05T12:18:06.930Z,54.99
2023-05-05T12:19:06.912Z,55.09
2023-05-05T12:20:07.247Z,55.49
2023-05-05T12:21:06.932Z,55.88
2023-05-05T12:22:06.939Z,57.09
2023-05-05T12:23:06.958Z,56.68
2023-05-05T12:24:06.994Z,55.79
2023-05-05T12:25:07.000Z,56.18
2023-05-05T12:26:07.000Z,57.35
2023-05-05T12:27:07.018Z,57.56
2023-05-05T12:28:07.058Z,55.06
2023-05-05T12:29:07.076Z,54.57
2023-05-05T12:30:07.345Z,54.27
2023-05-05T12:31:07.121Z,53.96
2023-05-05T12:32:07.203Z,51.87
2023-05-05T12:33:07.124Z,51.97
2023-05-05T12:34:07.165Z,51.07
2023-05-05T12:35:07.151Z,51.97
2023-05-05T12:36:07.157Z,53.64
2023-05-05T12:37:07.166Z,54.04
2023-05-05T12:38:07.208Z,51.45
2023-05-05T12:39:07.251Z,52.87
2023-05-05T12:40:07.409Z,52.07
2023-05-05T12:41:07.224Z,52.07
2023-05-05T12:42:07.300Z,54.24
2023-05-05T12:43:07.277Z,53.34
2023-05-05T12:44:07.269Z,54.44
2023-05-05T12:45:07.279Z,51.75
2023-05-05T12:46:07.350Z,52.04
2023-05-05T12:47:07.326Z,52.04
2023-05-05T12:48:07.396Z,52.32
2023-05-05T12:49:07.344Z,51.62
2023-05-05T12:50:07.573Z,52.22
2023-05-05T12:51:07.377Z,53.41
2023-05-05T12:52:07.377Z,52.72
2023-05-05T12:53:07.416Z,52.81